This is the latest recevied weather packets stored in our database for station/object HS1WDC-1. If no packets are shown the sender has not sent any weather packets the latest 10 day(s).
| Time | Temp. | Humidity | Pressure | Rain* | Wind** | Luminosity | Snow |
|---|---|---|---|---|---|---|---|
| 1778143687 | 40.56° C | 42% | 1003 hPa | - | - | 0 W/m² | - |
| 1778142762 | 40.56° C | 42% | 1003 hPa | - | - | 0 W/m² | - |
| 1778141838 | 40.56° C | 42% | 1003 hPa | - | - | 0 W/m² | - |
| 1778140913 | 40.56° C | 40% | 1003 hPa | - | - | 0 W/m² | - |
| 1778139989 | 41.67° C | 38% | 1003 hPa | - | - | 0 W/m² | - |
| 1778139064 | 41.67° C | 38% | 1004 hPa | - | - | 0 W/m² | - |
| 1778138139 | 41.67° C | 38% | 1004 hPa | - | - | 0 W/m² | - |
| 1778137214 | 41.67° C | 39% | 1004 hPa | - | - | 0 W/m² | - |
| 1778136290 | 40.56° C | 42% | 1004 hPa | - | - | 0 W/m² | - |
| 1778135365 | 40° C | 44% | 1005 hPa | - | - | 0 W/m² | - |
| 1778134440 | 39.44° C | 44% | 1005 hPa | - | - | 0 W/m² | - |
| 1778133515 | 39.44° C | 44% | 1006 hPa | - | - | 0 W/m² | - |
| 1778132590 | 39.44° C | 45% | 1006 hPa | - | - | 0 W/m² | - |
| 1778131666 | 40° C | 43% | 1006 hPa | - | - | 0 W/m² | - |
| 1778130741 | 40° C | 43% | 1007 hPa | - | - | 0 W/m² | - |
| 1778129816 | 40.56° C | 40% | 1007 hPa | - | - | 0 W/m² | - |
| 1778128891 | 39.44° C | 43% | 1007 hPa | - | - | 0 W/m² | - |
| 1778127966 | 40° C | 43% | 1007 hPa | - | - | 0 W/m² | - |
| 1778127042 | 39.44° C | 43% | 1007 hPa | - | - | 0 W/m² | - |
| 1778126118 | 39.44° C | 44% | 1008 hPa | - | - | 0 W/m² | - |
| 1778106701 | 33.89° C | 57% | 1007 hPa | - | - | 0 W/m² | - |
| 1778104852 | 35° C | 55% | 1007 hPa | - | - | 0 W/m² | - |
| 1778093735 | 35.56° C | 54% | 1006 hPa | - | - | 0 W/m² | - |
| 1778090962 | 35.56° C | 53% | 1006 hPa | - | - | 0 W/m² | - |
| 1778090038 | 36.11° C | 52% | 1006 hPa | - | - | 0 W/m² | - |
* Rain since midnight (hover to see other rain measurements)
** Current wind speed in m/s (hover to see current wind gust speed)